Time;durP1;ratioP1;P1;durP2;ratioP2;P2;SDS_P1;SDS_P2;PMS_P1;PMS_P2;Temp;Humidity;BMP_temperature;BMP_pressure;BME280_temperature;BME280_humidity;BME280_pressure;Samples;Min_cycle;Max_cycle;Signal;HPM_P1;HPM_P2
2021/09/06 00:00:29;;;;;;;1.83;1.60;;;30.20;68.80;;;;;;5143761;27;20482;-39
2021/09/06 00:03:00;;;;;;;1.50;1.40;;;30.10;70.10;;;;;;5143914;27;20455;-40
2021/09/06 00:05:32;;;;;;;1.77;1.67;;;30.20;70.10;;;;;;5144248;27;20858;-40
2021/09/06 00:08:03;;;;;;;1.37;1.30;;;30.30;70.90;;;;;;5143658;28;20535;-39
2021/09/06 00:10:39;;;;;;;1.70;1.60;;;30.50;69.40;;;;;;5143771;28;20448;-39
2021/09/06 00:13:14;;;;;;;3.23;1.80;;;30.50;68.20;;;;;;5143682;27;20842;-39
2021/09/06 00:15:45;;;;;;;1.57;1.40;;;30.30;70.70;;;;;;5143321;28;20450;-39
2021/09/06 00:18:16;;;;;;;2.20;1.80;;;30.20;70.20;;;;;;5143804;27;20955;-40
2021/09/06 00:20:47;;;;;;;1.70;1.60;;;30.00;70.70;;;;;;5143309;27;20923;-48
2021/09/06 00:23:18;;;;;;;2.00;1.80;;;30.00;70.70;;;;;;5142924;28;20929;-45
2021/09/06 00:25:49;;;;;;;1.90;1.80;;;30.10;70.80;;;;;;5142956;28;20475;-51
2021/09/06 00:28:22;;;;;;;2.60;1.90;;;29.80;73.20;;;;;;5142690;28;20453;-48
2021/09/06 00:31:13;;;;;;;2.20;1.90;;;29.40;75.20;;;;;;5142487;27;20492;-45
2021/09/06 00:33:44;;;;;;;3.47;2.40;;;29.20;76.60;;;;;;5143378;28;20552;-47
2021/09/06 00:36:15;;;;;;;2.37;2.17;;;28.90;77.90;;;;;;5142718;28;20441;-49
2021/09/06 00:38:48;;;;;;;2.23;2.00;;;28.80;79.70;;;;;;5145561;27;20464;-51
2021/09/06 00:41:19;;;;;;;1.90;1.80;;;28.60;81.80;;;;;;5147769;27;20467;-49
2021/09/06 00:43:53;;;;;;;2.50;1.60;;;28.50;82.80;;;;;;5147202;27;20458;-47
2021/09/06 00:46:24;;;;;;;2.07;1.90;;;28.10;83.90;;;;;;5147569;27;20443;-44
2021/09/06 00:48:55;;;;;;;1.80;1.70;;;27.70;85.30;;;;;;5147851;27;20485;-39
2021/09/06 00:51:26;;;;;;;1.50;1.40;;;27.30;86.40;;;;;;5150609;27;20439;-39
2021/09/06 00:53:57;;;;;;;79.63;73.80;;;26.90;88.30;;;;;;5147104;27;20474;-45
2021/09/06 00:56:29;;;;;;;61.40;55.80;;;26.70;89.70;;;;;;5146991;27;20454;-47
2021/09/06 00:59:01;;;;;;;92.90;84.97;;;26.40;90.40;;;;;;5146937;27;20458;-44
2021/09/06 01:01:32;;;;;;;104.90;95.47;;;26.30;90.90;;;;;;5147353;27;20472;-43
2021/09/06 01:04:04;;;;;;;41.07;37.47;;;26.00;91.50;;;;;;5147130;27;20440;-47
2021/09/06 01:06:35;;;;;;;176.50;161.00;;;25.90;91.70;;;;;;5147527;27;20483;-42
2021/09/06 01:09:06;;;;;;;130.03;118.57;;;25.90;91.90;;;;;;5147141;27;20450;-45
2021/09/06 01:11:37;;;;;;;347.73;320.53;;;25.90;92.30;;;;;;5147610;27;20912;-45
2021/09/06 01:14:09;;;;;;;384.97;345.47;;;25.90;92.30;;;;;;5146850;27;20658;-44
2021/09/06 01:16:40;;;;;;;53.83;48.83;;;25.90;92.50;;;;;;5147310;27;20482;-44
2021/09/06 01:19:11;;;;;;;142.53;128.63;;;25.90;92.80;;;;;;5146705;27;20466;-43
2021/09/06 01:21:42;;;;;;;10.53;9.43;;;26.00;92.90;;;;;;5147799;27;20437;-42
2021/09/06 01:24:16;;;;;;;2.30;2.10;;;26.00;93.20;;;;;;5145809;27;20469;-43
2021/09/06 01:26:49;;;;;;;3.20;1.97;;;26.00;93.20;;;;;;5146835;27;20452;-41
2021/09/06 01:29:20;;;;;;;1.40;1.30;;;25.90;93.60;;;;;;5146597;27;20453;-43
2021/09/06 01:31:52;;;;;;;2.27;1.60;;;26.00;93.60;;;;;;5147301;27;20504;-43
2021/09/06 01:34:23;;;;;;;1.40;1.30;;;26.00;93.90;;;;;;5146878;27;20482;-45
2021/09/06 01:36:54;;;;;;;1.70;1.53;;;25.90;94.00;;;;;;5146475;27;20449;-43
2021/09/06 01:39:25;;;;;;;2.53;2.37;;;25.90;94.30;;;;;;5146387;27;20422;-41
2021/09/06 01:41:58;;;;;;;3.07;1.37;;;25.80;94.40;;;;;;5146931;27;20445;-40
2021/09/06 01:44:29;;;;;;;2.10;1.50;;;25.80;94.40;;;;;;5146252;27;20470;-43
2021/09/06 01:47:00;;;;;;;1.70;1.33;;;25.60;94.90;;;;;;5146242;27;20452;-39
2021/09/06 01:49:31;;;;;;;1.57;1.23;;;25.60;95.20;;;;;;5145449;27;20480;-38
2021/09/06 01:52:02;;;;;;;1.83;1.73;;;25.40;95.50;;;;;;5146876;27;20425;-40
2021/09/06 01:54:33;;;;;;;1.33;1.23;;;25.30;95.80;;;;;;5145504;27;20595;-43
2021/09/06 01:57:06;;;;;;;5.83;1.60;;;25.10;96.40;;;;;;5132190;27;20518;-38
2021/09/06 01:59:37;;;;;;;2.50;2.30;;;25.10;96.60;;;;;;5145361;27;20459;-38
2021/09/06 02:02:08;;;;;;;1.77;1.10;;;25.00;96.70;;;;;;5145356;27;20528;-41
2021/09/06 02:04:39;;;;;;;2.33;1.70;;;25.00;97.10;;;;;;5146698;27;20430;-41
2021/09/06 02:07:10;;;;;;;1.63;1.37;;;24.90;97.40;;;;;;5138881;27;20432;-43
2021/09/06 02:09:41;;;;;;;1.57;1.27;;;24.90;97.50;;;;;;5144561;27;20509;-43
2021/09/06 02:12:14;;;;;;;1.50;1.40;;;24.80;97.90;;;;;;5138110;27;20567;-42
2021/09/06 02:14:45;;;;;;;1.50;1.40;;;24.70;98.50;;;;;;5140716;27;20499;-38
2021/09/06 02:17:16;;;;;;;2.20;2.00;;;24.60;98.80;;;;;;5125395;27;20450;-42
2021/09/06 02:19:47;;;;;;;4.10;1.40;;;24.50;98.70;;;;;;5125002;27;20434;-43
2021/09/06 02:22:18;;;;;;;1.60;1.50;;;24.50;98.70;;;;;;5138717;27;21013;-40
2021/09/06 02:24:49;;;;;;;1.53;1.43;;;24.30;99.20;;;;;;5139986;27;20445;-42
2021/09/06 02:27:21;;;;;;;3.00;1.63;;;24.30;99.30;;;;;;5124370;27;20587;-40
2021/09/06 02:29:52;;;;;;;1.63;1.53;;;24.10;99.50;;;;;;5142097;27;20436;-46
2021/09/06 02:35:11;;;;;;;1.73;1.50;;;24.10;99.70;;;;;;5144697;27;20476;-43
2021/09/06 02:37:42;;;;;;;1.90;1.63;;;24.00;99.90;;;;;;5144735;27;20471;-39
2021/09/06 02:40:14;;;;;;;1.73;1.63;;;23.80;99.90;;;;;;5144155;27;20473;-39
2021/09/06 02:42:48;;;;;;;1.90;1.70;;;23.70;99.90;;;;;;5141183;27;20533;-42
2021/09/06 02:45:19;;;;;;;3.70;1.83;;;23.60;99.90;;;;;;5144761;27;20449;-43
2021/09/06 02:47:50;;;;;;;1.90;1.63;;;23.50;99.90;;;;;;5144306;27;20497;-43
2021/09/06 02:50:21;;;;;;;1.93;1.83;;;23.40;99.90;;;;;;5145087;27;20448;-40
2021/09/06 02:52:53;;;;;;;2.10;2.00;;;23.40;99.90;;;;;;5144927;27;20428;-42
2021/09/06 02:55:24;;;;;;;2.23;1.80;;;23.30;99.90;;;;;;5144220;27;21013;-44
2021/09/06 02:57:57;;;;;;;1.57;1.47;;;23.20;99.90;;;;;;5143641;27;20484;-43
2021/09/06 03:00:28;;;;;;;1.80;1.60;;;23.10;99.90;;;;;;5126810;27;20872;-42
2021/09/06 03:02:59;;;;;;;2.10;1.90;;;23.10;99.90;;;;;;5144036;27;20532;-43
2021/09/06 03:05:31;;;;;;;2.13;1.90;;;23.00;99.90;;;;;;5144276;27;20490;-45
2021/09/06 03:08:02;;;;;;;2.10;2.00;;;23.00;99.90;;;;;;5143889;27;20917;-41
2021/09/06 03:10:33;;;;;;;2.17;1.97;;;22.90;99.90;;;;;;5143917;27;20416;-41
2021/09/06 03:13:06;;;;;;;2.13;1.47;;;22.70;99.90;;;;;;5143802;27;20559;-46
2021/09/06 03:15:37;;;;;;;2.20;2.00;;;22.60;99.90;;;;;;5144248;27;20484;-41
2021/09/06 03:18:08;;;;;;;2.10;1.90;;;22.50;99.90;;;;;;5143623;27;20444;-46
2021/09/06 03:20:39;;;;;;;2.23;2.03;;;22.30;99.90;;;;;;5143911;27;20396;-40
2021/09/06 03:23:10;;;;;;;2.43;1.90;;;22.20;99.90;;;;;;5143527;27;20424;-42
2021/09/06 03:25:41;;;;;;;3.30;2.37;;;22.10;99.90;;;;;;5142198;27;20445;-42
2021/09/06 03:28:13;;;;;;;2.40;1.80;;;22.00;99.90;;;;;;5143657;27;20419;-39
2021/09/06 03:30:45;;;;;;;2.40;1.77;;;22.00;99.90;;;;;;5144313;27;20544;-40
2021/09/06 03:33:16;;;;;;;2.40;2.20;;;21.80;99.90;;;;;;5144334;27;20436;-39
2021/09/06 03:35:47;;;;;;;4.03;2.33;;;21.70;99.90;;;;;;5144229;27;20904;-40
2021/09/06 03:38:18;;;;;;;2.33;2.13;;;21.70;99.90;;;;;;5143790;27;20537;-39
2021/09/06 03:40:49;;;;;;;4.23;2.90;;;21.60;99.90;;;;;;5142368;27;20446;-39
2021/09/06 03:43:22;;;;;;;2.20;1.90;;;21.50;99.90;;;;;;5141686;27;20445;-40
2021/09/06 03:45:52;;;;;;;2.90;2.50;;;21.40;99.90;;;;;;5142558;27;20484;-45
2021/09/06 03:48:24;;;;;;;4.07;2.47;;;21.30;99.90;;;;;;5141550;27;20514;-44
2021/09/06 03:50:55;;;;;;;3.23;2.50;;;21.20;99.90;;;;;;5142396;27;20400;-41
2021/09/06 03:53:26;;;;;;;4.33;2.70;;;21.20;99.90;;;;;;5143278;27;20435;-37
2021/09/06 03:55:57;;;;;;;2.73;2.50;;;21.00;99.90;;;;;;5138087;27;20561;-40
2021/09/06 03:58:30;;;;;;;2.67;2.37;;;21.00;99.90;;;;;;5122689;28;20579;-41
2021/09/06 04:01:01;;;;;;;7.47;3.00;;;20.90;99.90;;;;;;5145820;27;20444;-40
2021/09/06 04:03:32;;;;;;;3.00;2.47;;;20.80;99.90;;;;;;5143729;27;20425;-46
2021/09/06 04:06:03;;;;;;;3.13;2.83;;;20.80;99.90;;;;;;5144117;27;20412;-40
2021/09/06 04:08:34;;;;;;;3.30;2.60;;;20.70;99.90;;;;;;5141324;27;20498;-40
2021/09/06 04:11:05;;;;;;;4.37;2.50;;;20.60;99.90;;;;;;5140570;27;20478;-44
2021/09/06 04:13:38;;;;;;;2.33;2.13;;;20.50;99.90;;;;;;5144434;27;20445;-43
2021/09/06 04:16:09;;;;;;;4.40;2.43;;;20.50;99.90;;;;;;5147286;27;20537;-43
2021/09/06 04:18:40;;;;;;;3.23;2.90;;;20.50;99.90;;;;;;5148287;27;20509;-42
2021/09/06 04:21:12;;;;;;;3.40;2.40;;;20.40;99.90;;;;;;5150552;27;20427;-41
2021/09/06 04:23:44;;;;;;;5.73;2.50;;;20.30;99.90;;;;;;5147473;27;20442;-42
2021/09/06 04:26:15;;;;;;;3.57;2.63;;;20.30;99.90;;;;;;5147402;27;20427;-42
2021/09/06 04:28:47;;;;;;;4.07;2.40;;;20.30;99.90;;;;;;5147076;27;20419;-42
2021/09/06 04:31:18;;;;;;;5.07;2.40;;;20.30;99.90;;;;;;5147510;27;20526;-42
2021/09/06 04:33:50;;;;;;;2.50;2.20;;;20.20;99.90;;;;;;5147196;27;20416;-42
2021/09/06 04:36:21;;;;;;;2.30;2.00;;;20.20;99.90;;;;;;5147631;27;20497;-42
2021/09/06 04:38:53;;;;;;;5.93;2.80;;;20.10;99.90;;;;;;5146031;27;20910;-43
2021/09/06 04:41:24;;;;;;;3.57;2.53;;;20.10;99.90;;;;;;5147732;27;20455;-43
2021/09/06 04:43:56;;;;;;;3.23;2.80;;;20.00;99.90;;;;;;5147064;27;20967;-43
2021/09/06 04:46:27;;;;;;;3.40;2.20;;;20.00;99.90;;;;;;5147671;27;20465;-43
2021/09/06 04:48:58;;;;;;;3.60;2.00;;;19.80;99.90;;;;;;5146761;27;20440;-43
2021/09/06 04:51:29;;;;;;;2.73;2.33;;;19.80;99.90;;;;;;5146820;27;20522;-43
2021/09/06 04:54:00;;;;;;;3.13;2.67;;;19.80;99.90;;;;;;5146390;27;20450;-41
2021/09/06 04:56:31;;;;;;;4.50;2.50;;;19.80;99.90;;;;;;5143998;27;20491;-43
2021/09/06 04:59:04;;;;;;;5.17;3.20;;;19.70;99.90;;;;;;5146157;27;20459;-42
2021/09/06 05:01:35;;;;;;;3.13;2.80;;;19.70;99.90;;;;;;5146383;27;20423;-42
2021/09/06 05:04:06;;;;;;;2.90;2.37;;;19.60;99.90;;;;;;5146014;27;20453;-43
2021/09/06 05:06:37;;;;;;;3.43;2.20;;;19.50;99.90;;;;;;5147354;27;20421;-42
2021/09/06 05:09:08;;;;;;;4.13;2.50;;;19.60;99.90;;;;;;5145192;27;20524;-43
2021/09/06 05:11:40;;;;;;;6.23;2.67;;;19.50;99.90;;;;;;5147333;27;20420;-43
2021/09/06 05:14:15;;;;;;;5.00;2.90;;;19.50;99.90;;;;;;5146463;27;20474;-42
2021/09/06 05:16:46;;;;;;;4.07;2.70;;;19.50;99.90;;;;;;5146995;27;20488;-42
2021/09/06 05:19:18;;;;;;;3.00;2.47;;;19.40;99.90;;;;;;5146522;27;20468;-42
2021/09/06 05:21:50;;;;;;;3.43;2.70;;;19.40;99.90;;;;;;5147344;27;20471;-42
2021/09/06 05:24:23;;;;;;;3.00;2.37;;;19.40;99.90;;;;;;5145715;27;20748;-42
2021/09/06 05:26:55;;;;;;;7.60;2.70;;;19.30;99.90;;;;;;5147189;27;20850;-42
2021/09/06 05:29:28;;;;;;;3.47;2.43;;;19.10;99.90;;;;;;5146454;27;20448;-42
2021/09/06 05:32:01;;;;;;;3.90;2.30;;;19.10;99.90;;;;;;5146464;27;20548;-41
2021/09/06 05:34:34;;;;;;;3.70;2.70;;;19.00;99.90;;;;;;5146288;27;20416;-40
2021/09/06 05:37:07;;;;;;;3.13;2.63;;;19.00;99.90;;;;;;5146837;27;20476;-43
2021/09/06 05:39:39;;;;;;;3.70;2.63;;;18.90;99.90;;;;;;5145762;27;20493;-42
2021/09/06 05:42:12;;;;;;;4.83;3.00;;;18.90;99.90;;;;;;5146861;27;20457;-42
2021/09/06 05:44:47;;;;;;;3.63;2.63;;;18.90;99.90;;;;;;5146652;27;20423;-42
2021/09/06 05:47:19;;;;;;;3.13;2.13;;;18.90;99.90;;;;;;5146367;27;20444;-42
2021/09/06 05:49:51;;;;;;;2.63;1.90;;;18.90;99.90;;;;;;5146317;27;20419;-42
2021/09/06 05:52:23;;;;;;;4.33;2.20;;;18.80;99.90;;;;;;5146555;27;20892;-43
2021/09/06 05:54:55;;;;;;;2.27;1.90;;;18.70;99.90;;;;;;5145455;27;20456;-42
2021/09/06 05:57:27;;;;;;;3.83;1.90;;;18.60;99.90;;;;;;5128435;27;20493;-42
2021/09/06 06:00:01;;;;;;;3.50;2.27;;;18.60;99.90;;;;;;5125626;28;20435;-42
2021/09/06 06:02:33;;;;;;;3.40;2.20;;;18.60;99.90;;;;;;5134481;27;20441;-42
2021/09/06 06:05:06;;;;;;;2.60;2.40;;;18.60;99.90;;;;;;5146092;27;20485;-42
2021/09/06 06:07:38;;;;;;;3.03;2.50;;;18.50;99.90;;;;;;5146177;27;20464;-42
2021/09/06 06:10:10;;;;;;;3.67;2.30;;;18.50;99.90;;;;;;5145536;27;20424;-42
2021/09/06 06:12:42;;;;;;;2.83;2.23;;;18.40;99.90;;;;;;5145172;27;20589;-42
2021/09/06 06:15:17;;;;;;;3.00;2.70;;;18.30;99.90;;;;;;5146023;27;20508;-41
2021/09/06 06:17:49;;;;;;;2.93;1.90;;;18.30;99.90;;;;;;5146258;27;20470;-42
2021/09/06 06:20:21;;;;;;;3.67;2.10;;;18.20;99.90;;;;;;5145585;27;20528;-42
2021/09/06 06:22:55;;;;;;;2.30;2.10;;;18.30;99.90;;;;;;5145754;27;20468;-42
2021/09/06 06:25:28;;;;;;;3.97;2.17;;;18.20;99.90;;;;;;5145665;27;20476;-42
2021/09/06 06:28:00;;;;;;;4.03;2.40;;;18.10;99.90;;;;;;5145715;27;20420;-42
2021/09/06 06:30:34;;;;;;;3.20;2.53;;;18.10;99.90;;;;;;5145647;27;20427;-42
2021/09/06 06:33:07;;;;;;;3.60;2.20;;;18.10;99.90;;;;;;5146110;27;20540;-42
2021/09/06 06:35:39;;;;;;;3.33;2.40;;;18.10;99.90;;;;;;5145380;27;20449;-42
2021/09/06 06:38:11;;;;;;;2.37;2.17;;;18.10;99.90;;;;;;5145843;27;20425;-42
2021/09/06 06:40:46;;;;;;;2.70;1.87;;;18.00;99.90;;;;;;5145654;27;20707;-42
2021/09/06 06:43:18;;;;;;;3.40;2.43;;;18.10;99.90;;;;;;5145350;27;20504;-42
2021/09/06 06:45:52;;;;;;;2.93;2.33;;;18.00;99.90;;;;;;5145674;27;20453;-42
2021/09/06 06:48:24;;;;;;;3.90;2.33;;;18.00;99.90;;;;;;5145737;27;20922;-42
2021/09/06 06:51:04;;;;;;;2.40;2.20;;;18.00;99.90;;;;;;5145335;27;20423;-43
2021/09/06 06:53:37;;;;;;;2.30;2.10;;;17.90;99.90;;;;;;5145555;27;20537;-43
2021/09/06 06:56:09;;;;;;;4.80;2.40;;;17.90;99.90;;;;;;5144916;27;20500;-43
2021/09/06 06:58:40;;;;;;;2.60;2.13;;;17.90;99.90;;;;;;5144970;27;20457;-43
2021/09/06 07:01:14;;;;;;;6.77;2.50;;;17.90;99.90;;;;;;5145250;27;20474;-43
2021/09/06 07:03:47;;;;;;;3.73;2.30;;;17.80;99.90;;;;;;5145472;27;20429;-42
2021/09/06 07:06:20;;;;;;;4.07;2.57;;;17.80;99.90;;;;;;5145406;27;20451;-42
2021/09/06 07:08:53;;;;;;;3.00;2.50;;;17.70;99.90;;;;;;5144694;27;20493;-42
2021/09/06 07:11:26;;;;;;;2.40;2.20;;;17.70;99.90;;;;;;5145601;27;20473;-42
2021/09/06 07:13:58;;;;;;;3.07;2.50;;;17.70;99.90;;;;;;5144877;27;20464;-40
2021/09/06 07:16:31;;;;;;;2.70;2.27;;;17.70;99.90;;;;;;5145102;27;20537;-42
2021/09/06 07:19:03;;;;;;;4.13;2.00;;;17.70;99.90;;;;;;5144958;27;20480;-42
2021/09/06 07:21:35;;;;;;;3.27;2.13;;;17.70;99.90;;;;;;5144955;27;20444;-43
2021/09/06 07:24:08;;;;;;;4.50;2.50;;;17.60;99.90;;;;;;5143951;27;20451;-43
2021/09/06 07:26:40;;;;;;;2.70;2.20;;;17.60;99.90;;;;;;5145497;27;20772;-43
2021/09/06 07:29:11;;;;;;;2.30;2.10;;;17.60;99.90;;;;;;5144394;27;20416;-42
2021/09/06 07:31:45;;;;;;;2.50;2.03;;;17.60;99.90;;;;;;5144330;27;20528;-43
2021/09/06 07:34:18;;;;;;;4.57;2.47;;;17.60;99.90;;;;;;5144313;27;20427;-43
2021/09/06 07:36:51;;;;;;;3.77;2.20;;;17.60;99.90;;;;;;5144776;27;20873;-43
2021/09/06 07:39:23;;;;;;;3.60;2.30;;;17.60;99.90;;;;;;5143728;27;20432;-44
2021/09/06 07:41:55;;;;;;;3.43;2.33;;;17.60;99.90;;;;;;5144859;27;20444;-42
2021/09/06 07:44:28;;;;;;;3.33;2.10;;;17.60;99.90;;;;;;5143880;27;20452;-43
2021/09/06 07:47:02;;;;;;;4.63;2.00;;;17.50;99.90;;;;;;5144339;27;20453;-43
2021/09/06 07:49:35;;;;;;;3.70;2.27;;;17.60;99.90;;;;;;5143645;27;20440;-43
2021/09/06 07:52:07;;;;;;;4.43;2.30;;;17.60;99.90;;;;;;5144249;27;20459;-42
2021/09/06 07:54:39;;;;;;;2.70;1.90;;;17.60;99.90;;;;;;5143439;27;20482;-43
2021/09/06 07:57:11;;;;;;;3.00;2.40;;;17.60;99.90;;;;;;5144402;27;20535;-43
2021/09/06 07:59:44;;;;;;;2.70;2.50;;;17.60;99.90;;;;;;5143891;27;20471;-42
2021/09/06 08:02:18;;;;;;;4.10;2.57;;;17.60;99.90;;;;;;5143867;27;20449;-41
2021/09/06 08:04:50;;;;;;;4.87;2.70;;;17.60;99.90;;;;;;5143903;27;20444;-42
2021/09/06 08:07:22;;;;;;;3.70;2.30;;;17.60;99.90;;;;;;5144018;27;20928;-42
2021/09/06 08:09:54;;;;;;;3.10;2.23;;;17.60;99.90;;;;;;5143389;27;20583;-42
2021/09/06 08:12:26;;;;;;;3.23;2.50;;;17.60;99.90;;;;;;5143948;27;20437;-42
2021/09/06 08:14:59;;;;;;;2.93;2.40;;;17.70;99.90;;;;;;5144114;27;20467;-42
2021/09/06 08:17:34;;;;;;;4.47;2.70;;;17.70;99.90;;;;;;5144093;28;20488;-41
2021/09/06 08:20:08;;;;;;;2.87;2.30;;;17.70;99.90;;;;;;5143926;27;20466;-41
2021/09/06 08:22:41;;;;;;;3.17;2.37;;;17.70;99.90;;;;;;5143149;27;20444;-41
2021/09/06 08:25:15;;;;;;;3.07;2.77;;;17.70;99.90;;;;;;5143346;27;20450;-41
2021/09/06 08:27:48;;;;;;;3.53;2.40;;;17.60;99.90;;;;;;5143688;27;20458;-41
2021/09/06 08:30:21;;;;;;;2.27;2.10;;;17.60;99.90;;;;;;5143938;27;20429;-41
2021/09/06 08:32:55;;;;;;;3.83;3.00;;;17.60;99.90;;;;;;5143644;28;20482;-41
2021/09/06 08:35:28;;;;;;;4.27;2.90;;;17.60;99.90;;;;;;5143755;27;20419;-42
2021/09/06 08:38:00;;;;;;;3.53;2.57;;;17.70;99.90;;;;;;5143424;27;20495;-42
2021/09/06 08:40:33;;;;;;;3.93;2.97;;;17.70;99.90;;;;;;5143672;27;20448;-42
2021/09/06 08:43:06;;;;;;;3.07;2.40;;;17.60;99.90;;;;;;5143096;27;20443;-42
2021/09/06 08:45:39;;;;;;;3.67;2.17;;;17.60;99.90;;;;;;5143983;27;20425;-42
2021/09/06 08:48:13;;;;;;;5.47;2.57;;;17.60;99.90;;;;;;5143864;27;20446;-42
2021/09/06 08:50:45;;;;;;;5.90;2.43;;;17.60;99.90;;;;;;5143608;27;20804;-41
2021/09/06 08:53:17;;;;;;;4.73;1.83;;;17.60;99.90;;;;;;5143164;27;20460;-41
2021/09/06 08:55:49;;;;;;;3.70;2.40;;;17.60;99.90;;;;;;5139377;27;20441;-42
2021/09/06 08:58:40;;;;;;;3.10;2.63;;;17.70;99.90;;;;;;5122511;28;20958;-41
2021/09/06 09:01:12;;;;;;;3.50;2.60;;;17.70;99.90;;;;;;5126944;28;20407;-41
2021/09/06 09:03:47;;;;;;;3.20;2.60;;;17.80;99.90;;;;;;5127077;28;20433;-41
2021/09/06 09:06:22;;;;;;;2.50;2.30;;;17.80;99.90;;;;;;5134758;27;20448;-42
2021/09/06 09:08:57;;;;;;;4.33;2.70;;;17.80;99.90;;;;;;5146575;27;20529;-42
2021/09/06 09:11:29;;;;;;;3.63;2.30;;;17.80;99.90;;;;;;5147163;27;20479;-42
2021/09/06 09:14:13;;;;;;;2.93;2.20;;;17.80;99.90;;;;;;5147009;27;20494;-41
2021/09/06 09:16:56;;;;;;;3.00;2.63;;;17.80;99.90;;;;;;5147185;27;20439;-42
2021/09/06 09:19:30;;;;;;;3.83;2.63;;;17.80;99.90;;;;;;5147151;27;20425;-42
2021/09/06 09:22:04;;;;;;;2.87;2.30;;;17.80;99.90;;;;;;5147220;27;20524;-42
2021/09/06 09:24:37;;;;;;;2.77;2.57;;;17.80;99.90;;;;;;5145958;27;20571;-42
2021/09/06 09:27:11;;;;;;;3.70;2.13;;;17.80;99.90;;;;;;5147190;27;20514;-42
2021/09/06 09:29:45;;;;;;;3.60;2.60;;;17.80;99.90;;;;;;5146788;27;20466;-42
2021/09/06 09:32:18;;;;;;;2.87;2.67;;;17.90;99.90;;;;;;5146640;27;20450;-41
2021/09/06 09:34:53;;;;;;;2.37;2.17;;;17.90;99.90;;;;;;5146762;27;20441;-41
2021/09/06 09:37:30;;;;;;;5.03;2.43;;;17.90;99.90;;;;;;5147152;27;20504;-41
2021/09/06 09:40:08;;;;;;;6.17;2.80;;;17.90;99.90;;;;;;5146305;27;20662;-42
2021/09/06 09:42:50;;;;;;;3.50;2.73;;;17.90;99.90;;;;;;5146149;27;20423;-42
2021/09/06 09:45:26;;;;;;;3.27;2.40;;;17.90;99.90;;;;;;5146560;27;20441;-42
2021/09/06 09:48:00;;;;;;;3.70;2.73;;;17.90;99.90;;;;;;5146743;27;20481;-42
2021/09/06 09:50:36;;;;;;;3.40;2.20;;;17.80;99.90;;;;;;5146541;27;20463;-42
2021/09/06 09:53:08;;;;;;;6.00;2.80;;;17.80;99.90;;;;;;5145919;27;20483;-42
2021/09/06 09:55:43;;;;;;;5.13;2.47;;;17.80;99.90;;;;;;5144010;27;20448;-42
2021/09/06 09:58:16;;;;;;;3.00;2.50;;;17.80;99.90;;;;;;5125551;28;20485;-42
2021/09/06 10:00:49;;;;;;;3.37;2.50;;;17.70;99.90;;;;;;5125648;27;20457;-41
2021/09/06 10:03:27;;;;;;;4.20;2.30;;;17.80;99.90;;;;;;5125602;28;20529;-41
2021/09/06 10:06:02;;;;;;;3.13;2.63;;;17.80;99.90;;;;;;5131075;27;20500;-42
2021/09/06 10:08:34;;;;;;;3.80;2.43;;;17.70;99.90;;;;;;5145828;27;20786;-41
2021/09/06 10:11:14;;;;;;;3.90;2.30;;;17.80;99.90;;;;;;5145236;27;20897;-42
2021/09/06 10:13:47;;;;;;;2.40;2.20;;;17.80;99.90;;;;;;5145931;27;20428;-41
2021/09/06 10:16:33;;;;;;;2.37;2.17;;;17.80;99.90;;;;;;5146242;27;20448;-42
2021/09/06 10:19:09;;;;;;;3.83;2.83;;;17.80;99.90;;;;;;5145732;27;20492;-41
2021/09/06 10:21:46;;;;;;;2.70;2.50;;;17.80;99.90;;;;;;5146023;27;20452;-42
2021/09/06 10:24:19;;;;;;;4.93;2.90;;;17.80;99.90;;;;;;5144779;27;20451;-41
2021/09/06 10:26:51;;;;;;;4.10;2.67;;;17.70;99.90;;;;;;5145984;27;20502;-42
2021/09/06 10:29:24;;;;;;;5.87;2.60;;;17.80;99.90;;;;;;5145700;27;20441;-42
2021/09/06 10:32:03;;;;;;;3.50;2.87;;;17.80;99.90;;;;;;5145758;27;20468;-41
2021/09/06 10:34:36;;;;;;;3.30;2.63;;;17.90;99.90;;;;;;5145214;27;20428;-41
2021/09/06 10:37:10;;;;;;;4.50;2.70;;;17.80;99.90;;;;;;5145962;27;20433;-41
2021/09/06 10:39:48;;;;;;;5.50;3.07;;;17.70;99.90;;;;;;5145274;27;20466;-41
2021/09/06 10:42:20;;;;;;;3.17;2.87;;;17.80;99.90;;;;;;5145459;27;20912;-41
2021/09/06 10:45:00;;;;;;;4.63;3.30;;;17.80;99.90;;;;;;5145992;27;20412;-41
2021/09/06 10:47:38;;;;;;;3.00;2.80;;;17.80;99.90;;;;;;5146009;27;20437;-41
2021/09/06 10:50:16;;;;;;;3.73;2.57;;;17.70;99.90;;;;;;5145500;27;20785;-41
2021/09/06 10:52:51;;;;;;;4.00;3.17;;;17.70;99.90;;;;;;5145111;27;20440;-42
2021/09/06 10:55:24;;;;;;;3.23;2.43;;;17.70;99.90;;;;;;5144913;27;20433;-41
2021/09/06 10:57:55;;;;;;;6.87;3.27;;;17.60;99.90;;;;;;5124619;28;20449;-41
2021/09/06 11:00:27;;;;;;;6.40;2.70;;;17.60;99.90;;;;;;5124873;28;20450;-41
2021/09/06 11:03:01;;;;;;;3.60;2.60;;;17.60;99.90;;;;;;5125128;28;20407;-41
2021/09/06 11:05:34;;;;;;;6.43;3.33;;;17.60;99.90;;;;;;5126579;27;20434;-41
2021/09/06 11:08:09;;;;;;;5.03;2.67;;;17.60;99.90;;;;;;5145113;27;20897;-42
2021/09/06 11:10:42;;;;;;;5.40;2.80;;;17.50;99.90;;;;;;5145077;27;20470;-42
2021/09/06 11:13:13;;;;;;;4.20;3.37;;;17.50;99.90;;;;;;5144820;27;20775;-42
2021/09/06 11:15:45;;;;;;;3.73;3.43;;;17.50;99.90;;;;;;5145148;27;20445;-41
2021/09/06 11:18:17;;;;;;;3.40;3.10;;;17.50;99.90;;;;;;5145271;27;20448;-42
2021/09/06 11:20:50;;;;;;;3.50;2.90;;;17.50;99.90;;;;;;5145403;27;20452;-41
2021/09/06 11:23:34;;;;;;;6.00;3.20;;;17.50;99.90;;;;;;5144200;27;20454;-42
2021/09/06 11:26:08;;;;;;;4.43;2.50;;;17.40;99.90;;;;;;5144494;27;20738;-42
2021/09/06 11:28:46;;;;;;;4.17;2.90;;;17.50;99.90;;;;;;5144719;27;20415;-42
2021/09/06 11:31:20;;;;;;;3.37;3.07;;;17.40;99.90;;;;;;5144714;27;20616;-42
2021/09/06 11:34:00;;;;;;;3.30;3.00;;;17.50;99.90;;;;;;5144597;27;20921;-42
2021/09/06 11:36:33;;;;;;;7.00;2.97;;;17.50;99.90;;;;;;5144960;27;20440;-41
2021/09/06 11:39:09;;;;;;;3.57;3.00;;;17.50;99.90;;;;;;5144132;27;20476;-42
2021/09/06 11:41:42;;;;;;;5.10;3.20;;;17.60;99.90;;;;;;5144920;27;20940;-41
2021/09/06 11:44:15;;;;;;;4.03;2.90;;;17.60;99.90;;;;;;5143788;27;20485;-42
2021/09/06 11:46:48;;;;;;;6.00;3.40;;;17.40;99.90;;;;;;5145032;27;20452;-41
2021/09/06 11:49:20;;;;;;;4.60;3.13;;;17.30;99.90;;;;;;5144254;27;20463;-42
2021/09/06 11:51:53;;;;;;;4.40;4.00;;;17.30;99.90;;;;;;5144815;27;20420;-42
2021/09/06 11:54:27;;;;;;;4.57;3.10;;;17.30;99.90;;;;;;5143719;27;20457;-42
2021/09/06 11:57:02;;;;;;;4.13;3.80;;;17.20;99.90;;;;;;5130893;27;20474;-42
2021/09/06 11:59:35;;;;;;;5.20;3.57;;;17.30;99.90;;;;;;5123112;28;20492;-42
2021/09/06 12:02:14;;;;;;;6.03;3.67;;;17.30;99.90;;;;;;5123745;28;20469;-42
2021/09/06 12:04:48;;;;;;;7.43;3.33;;;17.30;99.90;;;;;;5123464;28;20526;-42
2021/09/06 12:07:21;;;;;;;6.83;3.57;;;17.40;99.90;;;;;;5140326;27;20437;-42
2021/09/06 12:09:55;;;;;;;4.43;3.47;;;17.40;99.90;;;;;;5143939;27;20734;-42
2021/09/06 12:12:28;;;;;;;6.63;3.70;;;17.40;99.90;;;;;;5144001;27;20419;-41
2021/09/06 12:15:01;;;;;;;5.30;3.73;;;17.30;99.90;;;;;;5144062;27;20445;-41
2021/09/06 12:17:37;;;;;;;3.57;3.00;;;17.30;99.90;;;;;;5144041;27;20425;-40
2021/09/06 12:20:11;;;;;;;3.23;2.90;;;17.30;99.90;;;;;;5144240;27;20534;-41
2021/09/06 12:22:42;;;;;;;10.23;3.90;;;17.30;99.90;;;;;;5143516;27;20489;-42
2021/09/06 12:25:16;;;;;;;4.33;3.80;;;17.30;99.90;;;;;;5143444;27;20476;-42
2021/09/06 12:27:48;;;;;;;6.77;4.37;;;17.20;99.90;;;;;;5144153;27;20425;-42
2021/09/06 12:30:23;;;;;;;5.67;3.73;;;17.20;99.90;;;;;;5143580;28;20853;-41
2021/09/06 12:32:55;;;;;;;7.13;4.30;;;17.20;99.90;;;;;;5143757;27;20468;-41
2021/09/06 12:35:28;;;;;;;5.23;3.47;;;17.20;99.90;;;;;;5146694;27;20445;-42
2021/09/06 12:38:00;;;;;;;6.10;3.90;;;17.20;99.90;;;;;;5147584;27;20455;-42
2021/09/06 12:40:35;;;;;;;5.30;3.50;;;17.20;99.90;;;;;;5147717;27;20480;-42
2021/09/06 12:43:07;;;;;;;7.13;3.73;;;17.10;99.90;;;;;;5147721;27;20424;-41
2021/09/06 12:45:40;;;;;;;5.33;3.70;;;17.10;99.90;;;;;;5147481;27;20448;-42
2021/09/06 12:48:11;;;;;;;5.77;3.63;;;17.00;99.90;;;;;;5147622;27;20497;-43
2021/09/06 12:50:42;;;;;;;6.30;4.10;;;17.10;99.90;;;;;;5147585;27;20903;-43
2021/09/06 12:53:13;;;;;;;4.27;3.87;;;17.10;99.90;;;;;;5146876;27;20444;-43
2021/09/06 12:55:46;;;;;;;5.27;3.57;;;17.10;99.90;;;;;;5146027;27;20476;-42
2021/09/06 12:58:17;;;;;;;6.03;3.67;;;17.00;99.90;;;;;;5147069;27;20508;-43
2021/09/06 13:00:48;;;;;;;7.20;3.90;;;17.10;99.90;;;;;;5146383;27;20527;-41
2021/09/06 13:03:20;;;;;;;6.90;3.43;;;17.00;99.90;;;;;;5146384;27;20448;-42
2021/09/06 13:05:53;;;;;;;5.93;4.27;;;17.00;99.90;;;;;;5146664;27;20441;-42
2021/09/06 13:08:23;;;;;;;10.00;3.80;;;17.00;99.90;;;;;;5146552;27;20505;-43
2021/09/06 13:10:56;;;;;;;5.57;3.60;;;17.00;99.90;;;;;;5146727;27;20423;-43
2021/09/06 13:13:28;;;;;;;7.03;3.87;;;17.10;99.90;;;;;;5147116;27;20456;-43
2021/09/06 13:15:59;;;;;;;6.13;4.20;;;17.00;99.90;;;;;;5146368;27;20449;-43